Time;durP1;ratioP1;P1;durP2;ratioP2;P2;SDS_P1;SDS_P2;PMS_P1;PMS_P2;Temp;Humidity;BMP_temperature;BMP_pressure;BME280_temperature;BME280_humidity;BME280_pressure;Samples;Min_cycle;Max_cycle;Signal;HPM_P1;HPM_P2
2022/09/08 00:00:52;;;;;;;24.45;7.80;;;;;;;;;;4841760;29;20038;-65
2022/09/08 00:03:21;;;;;;;43.72;9.68;;;;;;;;;;4841061;29;20046;-64
2022/09/08 00:06:01;;;;;;;44.35;10.55;;;;;;;;;;4841576;29;20146;-67
2022/09/08 00:08:30;;;;;;;23.20;7.65;;;;;;;;;;4837953;29;20682;-68
2022/09/08 00:10:58;;;;;;;36.50;8.73;;;;;;;;;;4842098;29;20056;-68
2022/09/08 00:13:26;;;;;;;25.48;7.70;;;;;;;;;;4841522;29;20053;-69
2022/09/08 00:15:54;;;;;;;29.30;6.97;;;;;;;;;;4841353;29;20049;-71
2022/09/08 00:18:21;;;;;;;45.28;9.48;;;;;;;;;;4841174;29;20044;-71
2022/09/08 00:20:48;;;;;;;23.50;7.60;;;;;;;;;;4841155;29;20048;-65
2022/09/08 00:23:14;;;;;;;20.23;6.57;;;;;;;;;;4827179;29;20049;-66
2022/09/08 00:25:41;;;;;;;39.90;8.98;;;;;;;;;;4840894;29;20042;-66
2022/09/08 00:28:07;;;;;;;19.85;7.05;;;;;;;;;;4840677;29;20044;-65
2022/09/08 00:30:34;;;;;;;26.77;8.18;;;;;;;;;;4841354;29;20114;-65
2022/09/08 00:33:01;;;;;;;37.28;8.57;;;;;;;;;;4829216;29;20038;-66
2022/09/08 00:35:27;;;;;;;23.90;6.90;;;;;;;;;;4835972;29;20042;-68
2022/09/08 00:37:54;;;;;;;24.77;7.13;;;;;;;;;;4841342;29;20049;-65
2022/09/08 00:40:22;;;;;;;44.20;8.77;;;;;;;;;;4840669;29;20050;-64
2022/09/08 00:43:02;;;;;;;33.53;8.48;;;;;;;;;;4840718;29;20038;-63
2022/09/08 00:45:42;;;;;;;31.20;7.95;;;;;;;;;;4840800;29;20054;-64
2022/09/08 00:48:15;;;;;;;23.08;7.40;;;;;;;;;;4841113;29;20423;-63
2022/09/08 00:50:42;;;;;;;43.30;8.63;;;;;;;;;;4840506;29;20038;-64
2022/09/08 00:53:10;;;;;;;27.85;7.18;;;;;;;;;;4841332;29;20048;-64
2022/09/08 00:55:37;;;;;;;19.08;6.43;;;;;;;;;;4840685;29;20056;-67
2022/09/08 00:58:05;;;;;;;32.75;8.52;;;;;;;;;;4840375;29;20121;-67
2022/09/08 01:00:34;;;;;;;28.88;8.15;;;;;;;;;;4841099;29;20046;-67
2022/09/08 01:03:01;;;;;;;33.20;7.95;;;;;;;;;;4840044;29;20038;-68
2022/09/08 01:05:30;;;;;;;32.13;7.35;;;;;;;;;;4833509;29;20092;-68
2022/09/08 01:13:46;;;;;;;30.75;7.90;;;;;;;;;;4840383;29;20470;-73
2022/09/08 01:16:12;;;;;;;28.13;7.03;;;;;;;;;;4840323;29;20502;-71
2022/09/08 01:18:39;;;;;;;22.30;6.57;;;;;;;;;;4840502;29;20058;-71
2022/09/08 01:21:11;;;;;;;18.77;5.68;;;;;;;;;;4840306;29;20042;-70
2022/09/08 01:23:57;;;;;;;30.98;7.70;;;;;;;;;;4840208;29;20086;-69
2022/09/08 01:26:32;;;;;;;88.82;12.15;;;;;;;;;;4837329;29;20492;-70
2022/09/08 01:28:59;;;;;;;43.65;8.27;;;;;;;;;;4837063;29;20042;-70
2022/09/08 01:31:26;;;;;;;29.88;7.22;;;;;;;;;;4837558;29;20046;-64
2022/09/08 01:33:53;;;;;;;46.72;8.55;;;;;;;;;;4835757;29;20487;-66
2022/09/08 01:36:19;;;;;;;17.30;6.35;;;;;;;;;;4834975;29;20049;-66
2022/09/08 01:38:46;;;;;;;26.48;7.07;;;;;;;;;;4840050;29;20045;-67
2022/09/08 01:41:13;;;;;;;27.55;6.38;;;;;;;;;;4823079;29;20114;-66
2022/09/08 01:43:40;;;;;;;26.73;7.03;;;;;;;;;;4839428;29;20106;-70
2022/09/08 01:46:06;;;;;;;24.55;6.55;;;;;;;;;;4834479;29;20046;-71
2022/09/08 01:48:33;;;;;;;20.10;6.13;;;;;;;;;;4831510;29;20038;-66
2022/09/08 01:51:00;;;;;;;33.13;7.40;;;;;;;;;;4838436;29;20050;-65
2022/09/08 01:53:27;;;;;;;28.13;6.55;;;;;;;;;;4840127;29;20046;-65
2022/09/08 01:55:54;;;;;;;31.90;7.13;;;;;;;;;;4839812;29;20052;-63
2022/09/08 01:58:21;;;;;;;33.97;7.28;;;;;;;;;;4849412;29;20040;-63
2022/09/08 02:00:47;;;;;;;27.05;6.45;;;;;;;;;;4833211;29;20049;-63
2022/09/08 02:03:14;;;;;;;38.42;7.05;;;;;;;;;;4839308;29;20042;-62
2022/09/08 02:05:41;;;;;;;34.35;6.65;;;;;;;;;;4839135;29;20046;-67
2022/09/08 02:08:08;;;;;;;17.73;5.57;;;;;;;;;;4840419;29;20081;-66
2022/09/08 02:10:35;;;;;;;26.20;6.22;;;;;;;;;;4840007;29;20042;-66
2022/09/08 02:13:02;;;;;;;21.15;5.88;;;;;;;;;;4839374;29;20049;-64
2022/09/08 02:15:29;;;;;;;19.95;7.05;;;;;;;;;;4839527;29;20068;-64
2022/09/08 02:17:57;;;;;;;23.52;6.88;;;;;;;;;;4839290;29;20492;-63
2022/09/08 02:20:23;;;;;;;35.22;6.40;;;;;;;;;;4839625;29;20054;-63
2022/09/08 02:22:51;;;;;;;34.65;6.95;;;;;;;;;;4839963;29;20050;-63
2022/09/08 02:25:18;;;;;;;27.15;6.25;;;;;;;;;;4839250;29;20110;-65
2022/09/08 02:27:44;;;;;;;36.72;7.45;;;;;;;;;;4838196;29;20041;-65
2022/09/08 02:30:11;;;;;;;22.55;5.38;;;;;;;;;;4833340;29;20045;-66
2022/09/08 02:32:38;;;;;;;31.80;6.75;;;;;;;;;;4835335;29;20064;-66
2022/09/08 02:35:04;;;;;;;29.42;6.25;;;;;;;;;;4836134;29;20042;-66
2022/09/08 02:37:31;;;;;;;23.70;5.60;;;;;;;;;;4837714;29;20561;-66
2022/09/08 02:39:57;;;;;;;28.90;6.43;;;;;;;;;;4839276;29;20392;-67
2022/09/08 02:42:24;;;;;;;34.83;7.65;;;;;;;;;;4838707;29;20053;-67
2022/09/08 02:44:50;;;;;;;27.05;7.57;;;;;;;;;;4838747;29;20042;-67
2022/09/08 02:47:17;;;;;;;29.50;6.45;;;;;;;;;;4839739;29;20073;-67
2022/09/08 02:49:44;;;;;;;45.50;8.45;;;;;;;;;;4838952;29;20042;-67
2022/09/08 02:52:11;;;;;;;17.60;6.30;;;;;;;;;;4838874;29;20042;-67
2022/09/08 02:54:38;;;;;;;75.00;34.08;;;;;;;;;;4839242;29;20048;-66
2022/09/08 02:57:05;;;;;;;33.90;7.95;;;;;;;;;;4826908;29;20069;-67
2022/09/08 02:59:31;;;;;;;32.38;6.93;;;;;;;;;;4839284;29;20057;-67
2022/09/08 03:01:58;;;;;;;30.55;7.20;;;;;;;;;;4838610;29;20050;-69
2022/09/08 03:04:26;;;;;;;34.80;6.95;;;;;;;;;;4838459;29;20063;-69
2022/09/08 03:06:52;;;;;;;22.90;6.10;;;;;;;;;;4838750;29;20038;-70
2022/09/08 03:09:19;;;;;;;19.33;5.75;;;;;;;;;;4839147;29;20484;-68
2022/09/08 03:11:47;;;;;;;46.05;8.38;;;;;;;;;;4824137;29;20050;-70
2022/09/08 03:14:13;;;;;;;22.67;6.30;;;;;;;;;;4836214;29;20041;-64
2022/09/08 03:16:40;;;;;;;25.70;6.55;;;;;;;;;;4838882;29;20050;-65
2022/09/08 03:19:07;;;;;;;35.35;6.32;;;;;;;;;;4839140;29;20510;-66
2022/09/08 03:21:33;;;;;;;17.83;7.38;;;;;;;;;;4838357;29;20042;-67
2022/09/08 03:24:00;;;;;;;24.52;9.45;;;;;;;;;;4838964;29;20129;-65
2022/09/08 03:26:27;;;;;;;44.70;11.25;;;;;;;;;;4827013;29;20160;-63
2022/09/08 03:28:53;;;;;;;46.72;12.27;;;;;;;;;;4838223;29;20491;-65
2022/09/08 03:31:20;;;;;;;34.83;8.02;;;;;;;;;;4838868;29;20483;-66
2022/09/08 03:33:47;;;;;;;45.72;11.50;;;;;;;;;;4834169;29;20053;-65
2022/09/08 03:36:15;;;;;;;40.95;11.35;;;;;;;;;;4833035;29;20384;-64
2022/09/08 03:38:42;;;;;;;26.92;9.05;;;;;;;;;;4838533;29;20042;-67
2022/09/08 03:41:12;;;;;;;24.95;9.63;;;;;;;;;;4839521;29;20480;-66
2022/09/08 03:43:43;;;;;;;29.67;8.98;;;;;;;;;;4838263;29;20133;-66
2022/09/08 03:46:10;;;;;;;24.35;7.68;;;;;;;;;;4838545;29;20042;-64
2022/09/08 03:48:37;;;;;;;36.65;8.82;;;;;;;;;;4838568;29;20050;-66
2022/09/08 03:51:09;;;;;;;45.33;8.32;;;;;;;;;;4837502;29;20496;-65
2022/09/08 03:53:36;;;;;;;204.80;17.13;;;;;;;;;;4837424;29;20579;-64
2022/09/08 03:56:06;;;;;;;64.93;10.27;;;;;;;;;;4841628;29;20046;-62
2022/09/08 03:58:33;;;;;;;32.35;7.47;;;;;;;;;;4841427;29;20099;-62
2022/09/08 04:01:00;;;;;;;59.90;9.63;;;;;;;;;;4841841;29;20102;-65
2022/09/08 04:03:28;;;;;;;39.42;9.70;;;;;;;;;;4842363;29;20098;-64
2022/09/08 04:05:55;;;;;;;29.30;7.47;;;;;;;;;;4841408;29;20058;-64
2022/09/08 04:08:21;;;;;;;34.17;7.30;;;;;;;;;;4841935;29;20042;-64
2022/09/08 04:10:48;;;;;;;30.35;7.53;;;;;;;;;;4842180;29;20487;-63
2022/09/08 04:13:14;;;;;;;199.00;22.65;;;;;;;;;;4841527;29;20077;-63
2022/09/08 04:15:41;;;;;;;54.78;9.52;;;;;;;;;;4841521;29;20076;-63
2022/09/08 04:18:07;;;;;;;71.05;11.93;;;;;;;;;;4841723;29;20098;-63
2022/09/08 04:20:34;;;;;;;33.28;5.85;;;;;;;;;;4841500;29;20050;-63
2022/09/08 04:23:00;;;;;;;34.65;6.63;;;;;;;;;;4841970;29;20126;-63
2022/09/08 04:25:26;;;;;;;32.70;6.28;;;;;;;;;;4835766;29;20038;-63
2022/09/08 04:27:53;;;;;;;44.25;7.47;;;;;;;;;;4834142;29;20042;-63
2022/09/08 04:30:20;;;;;;;39.63;8.90;;;;;;;;;;4841557;29;20049;-64
2022/09/08 04:32:46;;;;;;;62.00;11.23;;;;;;;;;;4836506;29;20053;-64
2022/09/08 04:35:13;;;;;;;32.83;6.45;;;;;;;;;;4836918;29;20051;-65
2022/09/08 04:37:39;;;;;;;26.65;5.57;;;;;;;;;;4841236;29;20053;-63
2022/09/08 04:40:07;;;;;;;19.80;5.93;;;;;;;;;;4840683;29;20037;-62
2022/09/08 04:42:35;;;;;;;30.73;8.63;;;;;;;;;;4841271;29;20042;-63
2022/09/08 04:45:02;;;;;;;25.38;5.82;;;;;;;;;;4841212;29;20049;-64
2022/09/08 04:47:29;;;;;;;42.95;7.32;;;;;;;;;;4839763;29;20064;-64
2022/09/08 04:49:56;;;;;;;27.42;6.35;;;;;;;;;;4841346;29;20574;-63
2022/09/08 04:52:25;;;;;;;22.55;5.68;;;;;;;;;;4841065;29;20172;-64
2022/09/08 04:54:56;;;;;;;30.40;7.75;;;;;;;;;;4840535;29;20069;-64
2022/09/08 04:57:23;;;;;;;51.75;11.45;;;;;;;;;;4840393;29;20526;-65
2022/09/08 04:59:49;;;;;;;34.67;12.90;;;;;;;;;;4841014;29;20046;-65
2022/09/08 05:02:16;;;;;;;47.95;16.92;;;;;;;;;;4837377;29;20643;-63
2022/09/08 05:04:42;;;;;;;48.40;18.92;;;;;;;;;;4840435;29;20084;-64
2022/09/08 05:07:09;;;;;;;74.13;19.52;;;;;;;;;;4839290;29;20046;-65
2022/09/08 05:09:35;;;;;;;53.42;16.25;;;;;;;;;;4837850;29;20077;-68
2022/09/08 05:12:02;;;;;;;50.22;15.50;;;;;;;;;;4825305;29;20799;-66
2022/09/08 05:14:29;;;;;;;34.42;9.15;;;;;;;;;;4831588;29;20081;-68
2022/09/08 05:16:55;;;;;;;40.33;8.65;;;;;;;;;;4840461;29;20053;-65
2022/09/08 05:19:22;;;;;;;24.02;7.93;;;;;;;;;;4839765;29;20117;-65
2022/09/08 05:21:49;;;;;;;38.00;8.18;;;;;;;;;;4840015;29;20065;-64
2022/09/08 05:24:15;;;;;;;49.70;9.85;;;;;;;;;;4832103;29;20037;-64
2022/09/08 05:26:42;;;;;;;31.58;6.10;;;;;;;;;;4840284;29;20049;-64
2022/09/08 05:29:08;;;;;;;24.02;5.90;;;;;;;;;;4840706;29;20133;-64
2022/09/08 05:31:35;;;;;;;27.92;6.07;;;;;;;;;;4840019;29;20052;-64
2022/09/08 05:34:01;;;;;;;21.70;5.00;;;;;;;;;;4835946;29;20042;-64
2022/09/08 05:36:30;;;;;;;36.90;6.15;;;;;;;;;;4840393;29;20069;-64
2022/09/08 05:38:57;;;;;;;30.05;6.80;;;;;;;;;;4840221;29;20061;-64
2022/09/08 05:41:24;;;;;;;30.35;5.53;;;;;;;;;;4840783;29;20042;-64
2022/09/08 05:43:51;;;;;;;27.45;5.35;;;;;;;;;;4837142;29;20434;-64
2022/09/08 05:46:18;;;;;;;25.15;4.45;;;;;;;;;;4836466;29;20054;-63
2022/09/08 05:48:45;;;;;;;27.63;5.28;;;;;;;;;;4838237;29;20034;-64
2022/09/08 05:51:13;;;;;;;18.48;4.68;;;;;;;;;;4839404;29;20141;-65
2022/09/08 05:53:39;;;;;;;47.03;7.18;;;;;;;;;;4839532;29;20046;-63
2022/09/08 05:56:07;;;;;;;28.08;6.18;;;;;;;;;;4840924;29;20062;-66
2022/09/08 05:58:34;;;;;;;19.70;4.85;;;;;;;;;;4839465;29;20042;-66
2022/09/08 06:01:01;;;;;;;26.25;5.00;;;;;;;;;;4839758;29;20050;-66
2022/09/08 06:03:29;;;;;;;34.28;5.95;;;;;;;;;;4839915;29;20046;-66
2022/09/08 06:06:00;;;;;;;24.90;4.78;;;;;;;;;;4839580;29;20061;-66
2022/09/08 06:08:27;;;;;;;43.80;7.35;;;;;;;;;;4839690;29;20054;-66
2022/09/08 06:10:53;;;;;;;31.35;6.22;;;;;;;;;;4828991;29;20114;-66
2022/09/08 06:13:23;;;;;;;24.70;4.38;;;;;;;;;;4836531;29;20053;-66
2022/09/08 06:15:49;;;;;;;35.83;6.03;;;;;;;;;;4839125;29;20038;-66
2022/09/08 06:18:17;;;;;;;39.13;5.88;;;;;;;;;;4839561;29;20038;-66
2022/09/08 06:20:44;;;;;;;21.85;4.20;;;;;;;;;;4839765;29;20049;-66
2022/09/08 06:23:11;;;;;;;19.30;4.20;;;;;;;;;;4835323;29;20043;-66
2022/09/08 06:25:38;;;;;;;165.75;15.70;;;;;;;;;;4838354;29;20130;-66
2022/09/08 06:28:14;;;;;;;28.60;5.18;;;;;;;;;;4838911;29;20038;-66
2022/09/08 06:30:41;;;;;;;1162.13;123.45;;;;;;;;;;4839443;29;20053;-66
2022/09/08 06:33:31;;;;;;;158.77;13.52;;;;;;;;;;4835129;29;20042;-66
2022/09/08 06:36:08;;;;;;;49.03;7.07;;;;;;;;;;4830966;29;20042;-66
2022/09/08 06:38:37;;;;;;;24.55;5.35;;;;;;;;;;4838144;29;20046;-66
2022/09/08 06:41:15;;;;;;;19.58;4.65;;;;;;;;;;4826798;29;20412;-66
2022/09/08 06:43:48;;;;;;;19.42;4.35;;;;;;;;;;4838741;29;20125;-66
2022/09/08 06:46:18;;;;;;;22.95;4.80;;;;;;;;;;4838853;29;20052;-66
2022/09/08 06:48:44;;;;;;;86.43;9.07;;;;;;;;;;4839416;29;20045;-66
2022/09/08 06:51:31;;;;;;;13.05;3.78;;;;;;;;;;4839533;29;20038;-66
2022/09/08 06:54:02;;;;;;;41.03;6.50;;;;;;;;;;4839171;29;20131;-65
2022/09/08 06:56:37;;;;;;;20.65;5.00;;;;;;;;;;4839131;29;20052;-67
2022/09/08 06:59:24;;;;;;;18.05;4.05;;;;;;;;;;4835884;29;20057;-70
2022/09/08 07:01:54;;;;;;;27.75;5.13;;;;;;;;;;4839451;29;20050;-70
2022/09/08 07:04:29;;;;;;;53.38;8.00;;;;;;;;;;4838592;29;20042;-66
2022/09/08 07:07:17;;;;;;;54.97;6.82;;;;;;;;;;4831301;29;20075;-67
2022/09/08 07:10:23;;;;;;;44.97;6.05;;;;;;;;;;4821723;29;20069;-67
2022/09/08 07:12:50;;;;;;;62.33;6.78;;;;;;;;;;4816423;29;20046;-67
2022/09/08 07:15:16;;;;;;;15.07;5.70;;;;;;;;;;4817852;29;20046;-67
2022/09/08 07:17:49;;;;;;;35.03;5.90;;;;;;;;;;4817954;29;20054;-67
2022/09/08 07:20:16;;;;;;;23.95;4.65;;;;;;;;;;4818650;29;20054;-68
2022/09/08 07:22:54;;;;;;;44.53;5.93;;;;;;;;;;4816025;29;20057;-66
2022/09/08 07:25:20;;;;;;;36.70;5.70;;;;;;;;;;4818025;29;20055;-67
2022/09/08 07:27:49;;;;;;;19.23;4.55;;;;;;;;;;4817385;29;20047;-65
2022/09/08 07:30:18;;;;;;;22.88;4.65;;;;;;;;;;4819792;29;20428;-68
2022/09/08 07:32:47;;;;;;;25.98;4.43;;;;;;;;;;4821287;29;20054;-67
2022/09/08 07:35:36;;;;;;;33.63;4.95;;;;;;;;;;4821317;29;20046;-72
2022/09/08 07:38:05;;;;;;;30.35;4.60;;;;;;;;;;4822010;29;20062;-73
2022/09/08 07:40:34;;;;;;;16.55;3.53;;;;;;;;;;4821471;29;20054;-72
2022/09/08 07:43:00;;;;;;;18.55;3.83;;;;;;;;;;4821231;29;20118;-64
2022/09/08 07:45:48;;;;;;;23.40;5.50;;;;;;;;;;4832314;29;20046;-65
2022/09/08 07:48:33;;;;;;;29.27;4.07;;;;;;;;;;4842271;29;20126;-62
2022/09/08 07:51:06;;;;;;;19.38;3.60;;;;;;;;;;4841959;29;20050;-63
2022/09/08 07:53:39;;;;;;;28.40;4.50;;;;;;;;;;4841863;29;20049;-63
2022/09/08 07:56:20;;;;;;;17.25;3.45;;;;;;;;;;4842227;29;20392;-63
2022/09/08 07:58:57;;;;;;;248.77;19.50;;;;;;;;;;4840398;29;20053;-64
2022/09/08 08:01:32;;;;;;;17.90;3.30;;;;;;;;;;4842105;29;20487;-65
2022/09/08 08:04:18;;;;;;;45.10;6.03;;;;;;;;;;4841630;29;20105;-62
2022/09/08 08:06:47;;;;;;;29.58;5.32;;;;;;;;;;4841772;29;20049;-63
2022/09/08 08:09:36;;;;;;;36.08;9.38;;;;;;;;;;4841546;29;20046;-63
2022/09/08 08:12:06;;;;;;;27.08;5.95;;;;;;;;;;4841436;29;20057;-62
2022/09/08 08:14:38;;;;;;;25.92;5.57;;;;;;;;;;4841571;29;20046;-63
2022/09/08 08:17:14;;;;;;;24.10;8.95;;;;;;;;;;4842228;29;20057;-63
2022/09/08 08:19:59;;;;;;;45.03;12.13;;;;;;;;;;4834828;29;20051;-62
2022/09/08 08:22:41;;;;;;;18.17;4.28;;;;;;;;;;4838832;29;20096;-63
2022/09/08 08:25:16;;;;;;;22.45;3.42;;;;;;;;;;4841160;29;20126;-62
2022/09/08 08:27:46;;;;;;;26.60;5.13;;;;;;;;;;4840747;29;20069;-63
2022/09/08 08:30:13;;;;;;;16.33;4.15;;;;;;;;;;4841246;29;20038;-65
2022/09/08 08:33:00;;;;;;;33.70;5.45;;;;;;;;;;4836709;29;20050;-62
2022/09/08 08:35:31;;;;;;;31.23;8.77;;;;;;;;;;4819888;29;20057;-62
2022/09/08 08:37:58;;;;;;;27.75;5.00;;;;;;;;;;4841760;29;20351;-62
2022/09/08 08:40:47;;;;;;;45.65;6.32;;;;;;;;;;4839570;29;20042;-62
2022/09/08 08:43:20;;;;;;;58.92;8.13;;;;;;;;;;4840718;29;20506;-62
2022/09/08 08:46:05;;;;;;;104.25;17.13;;;;;;;;;;4840124;29;20037;-62
2022/09/08 08:48:32;;;;;;;43.95;9.50;;;;;;;;;;4840678;29;20045;-62
2022/09/08 08:51:17;;;;;;;18.05;5.50;;;;;;;;;;4840774;29;20038;-63
2022/09/08 08:54:02;;;;;;;40.38;6.63;;;;;;;;;;4840504;29;20125;-63
2022/09/08 08:56:33;;;;;;;17.00;3.92;;;;;;;;;;4838269;29;20045;-63
2022/09/08 08:59:05;;;;;;;22.67;3.70;;;;;;;;;;4841005;29;20046;-62
2022/09/08 09:01:50;;;;;;;12.13;2.85;;;;;;;;;;4841332;29;20050;-62
2022/09/08 09:04:30;;;;;;;26.33;4.43;;;;;;;;;;4840334;29;20086;-62
2022/09/08 09:07:19;;;;;;;55.90;6.45;;;;;;;;;;4840511;29;20521;-62
2022/09/08 09:10:03;;;;;;;18.80;3.70;;;;;;;;;;4840440;29;20088;-62
2022/09/08 09:12:43;;;;;;;15.85;3.47;;;;;;;;;;4840301;29;20422;-62
2022/09/08 09:15:19;;;;;;;14.10;3.88;;;;;;;;;;4841050;29;20041;-62
2022/09/08 09:18:12;;;;;;;30.55;4.65;;;;;;;;;;4835035;29;20050;-62
2022/09/08 09:20:39;;;;;;;32.50;4.55;;;;;;;;;;4840974;29;20041;-62
2022/09/08 09:23:12;;;;;;;15.00;3.42;;;;;;;;;;4841349;29;20400;-62
2022/09/08 09:25:57;;;;;;;21.70;4.03;;;;;;;;;;4840619;29;20038;-62
2022/09/08 09:28:42;;;;;;;29.90;4.28;;;;;;;;;;4839540;29;20043;-62
2022/09/08 09:31:17;;;;;;;36.88;3.72;;;;;;;;;;4830355;29;20042;-62
2022/09/08 09:33:50;;;;;;;24.58;4.93;;;;;;;;;;4835155;29;20069;-61
2022/09/08 09:36:27;;;;;;;15.48;3.28;;;;;;;;;;4834603;29;20052;-66
2022/09/08 09:39:05;;;;;;;29.17;4.75;;;;;;;;;;4840263;29;20040;-62
2022/09/08 09:41:35;;;;;;;21.95;4.25;;;;;;;;;;4837896;29;20061;-62
2022/09/08 09:44:19;;;;;;;18.00;4.60;;;;;;;;;;4840060;29;20050;-62
2022/09/08 09:47:04;;;;;;;17.42;3.95;;;;;;;;;;4839991;29;20064;-62
2022/09/08 09:50:03;;;;;;;22.92;4.30;;;;;;;;;;4839703;29;20040;-62
2022/09/08 09:52:35;;;;;;;19.70;3.92;;;;;;;;;;4814433;29;20061;-61
2022/09/08 09:55:19;;;;;;;70.88;9.13;;;;;;;;;;4815731;29;20082;-62
2022/09/08 09:58:06;;;;;;;40.17;6.60;;;;;;;;;;4814830;29;20058;-61
2022/09/08 10:00:41;;;;;;;18.92;2.80;;;;;;;;;;4778277;30;20079;-61
2022/09/08 10:03:26;;;;;;;24.52;4.47;;;;;;;;;;4779499;30;20058;-62
2022/09/08 10:05:53;;;;;;;26.67;4.70;;;;;;;;;;4778377;30;20142;-62
2022/09/08 10:08:23;;;;;;;31.73;4.00;;;;;;;;;;4779406;30;20067;-62
2022/09/08 10:11:08;;;;;;;29.58;4.30;;;;;;;;;;4779864;30;20453;-60
2022/09/08 10:13:35;;;;;;;20.13;3.20;;;;;;;;;;4778925;30;20566;-62
2022/09/08 10:16:01;;;;;;;27.40;3.92;;;;;;;;;;4779517;30;20047;-62
2022/09/08 10:18:28;;;;;;;29.52;3.58;;;;;;;;;;4773103;30;20514;-61
2022/09/08 10:20:57;;;;;;;26.20;4.65;;;;;;;;;;4778402;30;20059;-62
2022/09/08 10:23:42;;;;;;;25.65;3.05;;;;;;;;;;4783853;30;20524;-62
2022/09/08 10:26:08;;;;;;;19.58;3.47;;;;;;;;;;4771511;30;20411;-62
2022/09/08 10:28:45;;;;;;;17.98;3.45;;;;;;;;;;4777004;30;20063;-63
2022/09/08 10:31:24;;;;;;;16.42;3.15;;;;;;;;;;4767758;30;20059;-60
2022/09/08 10:34:05;;;;;;;50.72;6.13;;;;;;;;;;4777543;29;20073;-60
2022/09/08 10:36:51;;;;;;;25.23;3.47;;;;;;;;;;4776357;30;20047;-62
2022/09/08 10:39:36;;;;;;;9.93;2.42;;;;;;;;;;4816986;29;20050;-62
2022/09/08 10:42:35;;;;;;;28.65;4.47;;;;;;;;;;4839359;29;20046;-62
2022/09/08 10:45:11;;;;;;;16.15;3.50;;;;;;;;;;4839588;29;20386;-62
2022/09/08 10:47:56;;;;;;;50.17;5.28;;;;;;;;;;4839147;29;20057;-63
2022/09/08 10:50:28;;;;;;;38.33;4.63;;;;;;;;;;4835984;29;20056;-63
2022/09/08 10:53:04;;;;;;;25.77;4.00;;;;;;;;;;4839980;29;20076;-58
2022/09/08 15:04:02;;;;;;;45.72;5.32;;;;;;;;;;5062486;28;20437;-69
2022/09/08 15:06:36;;;;;;;44.10;4.45;;;;;;;;;;5063390;28;20071;-68
2022/09/08 15:09:32;;;;;;;69.28;5.95;;;;;;;;;;5062353;28;20553;-68
2022/09/08 15:12:12;;;;;;;36.67;4.82;;;;;;;;;;5024165;28;20088;-69
2022/09/08 15:14:53;;;;;;;60.38;5.28;;;;;;;;;;5025161;28;20080;-69
2022/09/08 15:17:28;;;;;;;122.25;9.40;;;;;;;;;;5024900;28;20572;-70
2022/09/08 15:19:58;;;;;;;33.45;3.83;;;;;;;;;;5024208;28;20050;-67
2022/09/08 15:22:43;;;;;;;54.70;5.20;;;;;;;;;;5024348;28;20419;-67
2022/09/08 15:25:21;;;;;;;42.30;5.78;;;;;;;;;;5024503;28;20033;-70
2022/09/08 15:27:48;;;;;;;40.22;4.38;;;;;;;;;;5022651;28;20045;-69
2022/09/08 15:30:17;;;;;;;52.65;5.30;;;;;;;;;;5024103;28;20705;-68
2022/09/08 15:32:49;;;;;;;33.60;4.38;;;;;;;;;;5024140;28;20046;-68
2022/09/08 15:35:34;;;;;;;34.45;3.85;;;;;;;;;;5024616;28;20290;-68
2022/09/08 15:38:06;;;;;;;38.67;3.75;;;;;;;;;;5024206;28;20049;-69
2022/09/08 15:40:33;;;;;;;57.83;6.15;;;;;;;;;;5015464;28;20121;-67
2022/09/08 15:43:00;;;;;;;65.72;5.90;;;;;;;;;;5016222;28;20431;-69
2022/09/08 15:45:27;;;;;;;27.08;3.15;;;;;;;;;;5024250;28;20042;-68
2022/09/08 15:48:12;;;;;;;82.88;7.40;;;;;;;;;;5029557;28;20076;-68
2022/09/08 15:51:02;;;;;;;57.13;5.45;;;;;;;;;;5062360;28;20040;-70
2022/09/08 15:53:58;;;;;;;87.07;6.75;;;;;;;;;;5060085;28;20056;-68
2022/09/08 15:56:44;;;;;;;110.63;8.68;;;;;;;;;;5022843;28;20467;-68
2022/09/08 15:59:13;;;;;;;34.70;3.63;;;;;;;;;;5024427;28;20559;-68
2022/09/08 16:01:45;;;;;;;64.05;6.55;;;;;;;;;;5021771;28;20045;-69
2022/09/08 16:04:18;;;;;;;19.20;3.30;;;;;;;;;;5013207;28;20049;-68
2022/09/08 16:06:48;;;;;;;37.50;5.00;;;;;;;;;;5009235;28;20084;-68
2022/09/08 16:09:15;;;;;;;30.15;4.45;;;;;;;;;;5008988;28;20049;-69
2022/09/08 16:12:05;;;;;;;93.63;8.20;;;;;;;;;;5009084;28;20061;-68
2022/09/08 16:14:36;;;;;;;20.48;3.85;;;;;;;;;;4993737;28;20041;-68
2022/09/08 16:17:13;;;;;;;36.08;4.63;;;;;;;;;;5010729;28;20443;-68
2022/09/08 16:19:41;;;;;;;122.45;10.10;;;;;;;;;;5008942;28;20555;-68
2022/09/08 16:22:13;;;;;;;23.48;4.20;;;;;;;;;;5009051;28;20038;-68
2022/09/08 16:25:03;;;;;;;24.67;3.65;;;;;;;;;;5008548;28;20052;-68
2022/09/08 16:27:41;;;;;;;13.57;2.95;;;;;;;;;;5009086;28;20050;-69
2022/09/08 16:30:28;;;;;;;50.65;6.32;;;;;;;;;;4992731;28;20052;-68
2022/09/08 16:33:12;;;;;;;53.72;5.53;;;;;;;;;;5027875;28;20073;-68
2022/09/08 16:35:48;;;;;;;25.25;5.07;;;;;;;;;;5048195;28;20045;-68
2022/09/08 16:38:44;;;;;;;28.17;5.18;;;;;;;;;;5050815;28;20063;-68
2022/09/08 16:41:30;;;;;;;85.63;9.27;;;;;;;;;;5041499;28;20063;-62
2022/09/08 16:44:11;;;;;;;26.33;4.72;;;;;;;;;;5047667;28;20059;-59
2022/09/08 16:46:38;;;;;;;28.05;4.47;;;;;;;;;;5048142;28;20048;-69
2022/09/08 16:49:16;;;;;;;31.13;5.10;;;;;;;;;;5047245;28;20116;-69
2022/09/08 16:52:01;;;;;;;33.53;5.93;;;;;;;;;;5047199;28;20033;-63
2022/09/08 16:54:30;;;;;;;34.10;5.93;;;;;;;;;;5047382;28;20053;-68
2022/09/08 16:57:03;;;;;;;39.17;5.80;;;;;;;;;;5047940;28;20044;-68
2022/09/08 16:59:56;;;;;;;42.42;6.07;;;;;;;;;;5047977;28;20055;-67
2022/09/08 17:02:25;;;;;;;116.30;11.77;;;;;;;;;;5009520;28;20049;-63
2022/09/08 17:04:56;;;;;;;36.72;5.72;;;;;;;;;;5005021;28;20073;-69
2022/09/08 17:07:33;;;;;;;124.97;12.48;;;;;;;;;;5005021;28;20584;-70
2022/09/08 17:10:00;;;;;;;49.00;7.88;;;;;;;;;;5000144;28;20467;-71
2022/09/08 17:12:32;;;;;;;21.88;5.68;;;;;;;;;;5005076;28;20096;-68
2022/09/08 17:15:08;;;;;;;25.75;6.60;;;;;;;;;;5005030;28;20046;-69
2022/09/08 17:17:40;;;;;;;43.47;7.40;;;;;;;;;;5007845;28;20063;-67
2022/09/08 17:20:11;;;;;;;31.25;7.18;;;;;;;;;;5008679;28;20469;-64
2022/09/08 17:22:46;;;;;;;33.58;6.53;;;;;;;;;;5005318;28;20041;-63
2022/09/08 17:25:16;;;;;;;26.92;5.68;;;;;;;;;;5005920;28;20038;-67
2022/09/08 17:27:42;;;;;;;38.83;7.50;;;;;;;;;;5002422;28;20050;-64
2022/09/08 17:30:14;;;;;;;42.63;6.85;;;;;;;;;;5006360;28;20046;-72
2022/09/08 17:32:55;;;;;;;39.10;7.25;;;;;;;;;;5005411;28;20062;-66
2022/09/08 17:35:34;;;;;;;44.80;9.15;;;;;;;;;;4991715;28;20056;-71
2022/09/08 17:38:19;;;;;;;36.90;6.60;;;;;;;;;;5007392;28;20054;-68
2022/09/08 17:40:50;;;;;;;122.97;12.40;;;;;;;;;;5044322;28;20049;-74
2022/09/08 17:43:21;;;;;;;31.50;5.75;;;;;;;;;;5044674;28;20399;-69
2022/09/08 17:45:54;;;;;;;68.10;9.27;;;;;;;;;;5045708;28;20037;-71
2022/09/08 17:48:31;;;;;;;26.52;6.22;;;;;;;;;;5045700;28;20084;-70
2022/09/08 17:51:07;;;;;;;40.92;7.75;;;;;;;;;;5046653;28;20049;-65
2022/09/08 17:53:54;;;;;;;31.00;6.78;;;;;;;;;;5045879;28;20044;-69
2022/09/08 17:56:40;;;;;;;46.80;8.65;;;;;;;;;;5049836;28;20055;-69
2022/09/08 17:59:10;;;;;;;46.15;8.13;;;;;;;;;;5047946;28;20557;-69
2022/09/08 18:01:51;;;;;;;38.45;7.95;;;;;;;;;;5045804;28;20037;-68
2022/09/08 18:04:19;;;;;;;30.05;6.55;;;;;;;;;;5046823;28;20047;-69
2022/09/08 18:06:53;;;;;;;59.75;7.93;;;;;;;;;;5045440;28;20033;-69
2022/09/08 18:09:19;;;;;;;146.20;14.32;;;;;;;;;;5046660;28;20049;-69
2022/09/08 18:12:10;;;;;;;58.03;8.98;;;;;;;;;;5048323;28;20037;-69
2022/09/08 18:15:02;;;;;;;32.97;6.45;;;;;;;;;;5043184;28;20459;-69
2022/09/08 18:17:34;;;;;;;55.25;7.18;;;;;;;;;;5044489;28;20045;-69
2022/09/08 18:20:06;;;;;;;20.33;4.63;;;;;;;;;;5045024;28;20044;-69
2022/09/08 18:22:38;;;;;;;31.23;5.50;;;;;;;;;;5045782;28;20037;-69
2022/09/08 18:25:17;;;;;;;35.72;4.95;;;;;;;;;;5046095;28;20037;-69
2022/09/08 18:27:58;;;;;;;46.08;6.43;;;;;;;;;;5048773;28;20043;-70
2022/09/08 18:30:25;;;;;;;19.58;4.03;;;;;;;;;;5045916;28;20045;-69
2022/09/08 18:33:21;;;;;;;34.42;5.38;;;;;;;;;;5047241;28;20051;-69
2022/09/08 18:35:48;;;;;;;46.95;5.60;;;;;;;;;;5006143;28;20050;-70
2022/09/08 18:38:23;;;;;;;36.95;5.22;;;;;;;;;;5006924;28;20046;-69
2022/09/08 18:40:57;;;;;;;23.73;3.50;;;;;;;;;;5004129;28;20050;-70
2022/09/08 18:43:38;;;;;;;33.28;4.78;;;;;;;;;;5003359;28;20046;-69
2022/09/08 18:46:16;;;;;;;30.33;4.28;;;;;;;;;;5003755;28;20581;-70
2022/09/08 18:49:06;;;;;;;29.67;5.15;;;;;;;;;;4999669;28;20053;-69
2022/09/08 18:51:50;;;;;;;18.08;3.50;;;;;;;;;;4906330;29;20058;-69
2022/09/08 18:54:17;;;;;;;52.30;6.00;;;;;;;;;;4906421;29;20068;-69
2022/09/08 18:56:48;;;;;;;631.38;55.72;;;;;;;;;;4908827;29;20048;-70
2022/09/08 18:59:24;;;;;;;33.35;5.07;;;;;;;;;;4909919;29;20104;-70
2022/09/08 19:01:59;;;;;;;36.05;5.65;;;;;;;;;;4905707;29;20602;-69
2022/09/08 19:04:42;;;;;;;23.48;4.10;;;;;;;;;;4905493;29;20122;-70
2022/09/08 19:07:27;;;;;;;24.77;3.87;;;;;;;;;;4901241;29;20107;-69
2022/09/08 19:09:55;;;;;;;40.90;4.88;;;;;;;;;;4905363;29;20063;-69
2022/09/08 19:12:27;;;;;;;26.13;4.28;;;;;;;;;;4933329;28;20077;-70
2022/09/08 19:15:19;;;;;;;34.70;4.78;;;;;;;;;;4963008;28;20070;-68